sensor_id;sensor_type;location;lat;lon;timestamp;P1;durP1;ratioP1;P2;durP2;ratioP2
21420;SDS011;10871;50.144;8.428;2023-06-14T00:02:13;8.07;;;4.72;;
21420;SDS011;10871;50.144;8.428;2023-06-14T00:04:40;6.35;;;4.60;;
21420;SDS011;10871;50.144;8.428;2023-06-14T00:07:07;9.00;;;4.97;;
21420;SDS011;10871;50.144;8.428;2023-06-14T00:09:37;11.35;;;4.65;;
21420;SDS011;10871;50.144;8.428;2023-06-14T00:12:03;7.93;;;4.15;;
21420;SDS011;10871;50.144;8.428;2023-06-14T00:14:32;5.07;;;4.13;;
21420;SDS011;10871;50.144;8.428;2023-06-14T00:16:58;6.18;;;4.55;;
21420;SDS011;10871;50.144;8.428;2023-06-14T00:19:25;8.98;;;4.60;;
21420;SDS011;10871;50.144;8.428;2023-06-14T00:21:52;8.93;;;5.10;;
21420;SDS011;10871;50.144;8.428;2023-06-14T00:24:19;5.07;;;4.57;;
21420;SDS011;10871;50.144;8.428;2023-06-14T00:26:45;7.63;;;4.60;;
21420;SDS011;10871;50.144;8.428;2023-06-14T00:29:12;7.40;;;4.35;;
21420;SDS011;10871;50.144;8.428;2023-06-14T00:31:38;5.07;;;4.35;;
21420;SDS011;10871;50.144;8.428;2023-06-14T00:34:05;6.72;;;4.53;;
21420;SDS011;10871;50.144;8.428;2023-06-14T00:36:31;6.07;;;4.22;;
21420;SDS011;10871;50.144;8.428;2023-06-14T00:38:58;5.43;;;4.65;;
21420;SDS011;10871;50.144;8.428;2023-06-14T00:41:24;7.50;;;4.28;;
21420;SDS011;10871;50.144;8.428;2023-06-14T00:43:51;7.30;;;4.40;;
21420;SDS011;10871;50.144;8.428;2023-06-14T00:46:18;6.30;;;4.40;;
21420;SDS011;10871;50.144;8.428;2023-06-14T00:48:45;6.82;;;4.30;;
21420;SDS011;10871;50.144;8.428;2023-06-14T00:51:12;6.22;;;4.40;;
21420;SDS011;10871;50.144;8.428;2023-06-14T00:53:38;9.82;;;4.72;;
21420;SDS011;10871;50.144;8.428;2023-06-14T00:56:06;7.53;;;4.70;;
21420;SDS011;10871;50.144;8.428;2023-06-14T00:58:32;5.05;;;4.45;;
21420;SDS011;10871;50.144;8.428;2023-06-14T01:00:59;7.60;;;4.60;;
21420;SDS011;10871;50.144;8.428;2023-06-14T01:03:25;6.88;;;4.10;;
21420;SDS011;10871;50.144;8.428;2023-06-14T01:05:53;7.53;;;4.65;;
21420;SDS011;10871;50.144;8.428;2023-06-14T01:08:43;7.28;;;4.50;;
21420;SDS011;10871;50.144;8.428;2023-06-14T01:11:16;4.78;;;4.32;;
21420;SDS011;10871;50.144;8.428;2023-06-14T01:13:45;8.15;;;4.22;;
21420;SDS011;10871;50.144;8.428;2023-06-14T01:16:13;6.28;;;4.38;;
21420;SDS011;10871;50.144;8.428;2023-06-14T01:18:40;8.07;;;5.00;;
21420;SDS011;10871;50.144;8.428;2023-06-14T01:21:19;6.30;;;4.28;;
21420;SDS011;10871;50.144;8.428;2023-06-14T01:23:47;6.35;;;4.53;;
21420;SDS011;10871;50.144;8.428;2023-06-14T01:26:19;6.57;;;4.45;;
21420;SDS011;10871;50.144;8.428;2023-06-14T01:28:46;7.45;;;4.80;;
21420;SDS011;10871;50.144;8.428;2023-06-14T01:31:17;8.57;;;4.57;;
21420;SDS011;10871;50.144;8.428;2023-06-14T01:33:43;6.53;;;4.75;;
21420;SDS011;10871;50.144;8.428;2023-06-14T01:36:10;4.60;;;4.20;;
21420;SDS011;10871;50.144;8.428;2023-06-14T01:38:37;8.70;;;4.38;;
21420;SDS011;10871;50.144;8.428;2023-06-14T01:41:04;7.38;;;4.47;;
21420;SDS011;10871;50.144;8.428;2023-06-14T01:43:31;6.65;;;4.47;;
21420;SDS011;10871;50.144;8.428;2023-06-14T01:45:59;6.97;;;4.00;;
21420;SDS011;10871;50.144;8.428;2023-06-14T01:48:26;9.77;;;4.40;;
21420;SDS011;10871;50.144;8.428;2023-06-14T01:50:52;8.63;;;4.63;;
21420;SDS011;10871;50.144;8.428;2023-06-14T01:53:19;6.22;;;4.20;;
21420;SDS011;10871;50.144;8.428;2023-06-14T01:55:46;8.52;;;4.72;;
21420;SDS011;10871;50.144;8.428;2023-06-14T01:58:15;10.52;;;4.88;;
21420;SDS011;10871;50.144;8.428;2023-06-14T02:00:45;4.90;;;4.20;;
21420;SDS011;10871;50.144;8.428;2023-06-14T02:03:13;6.07;;;4.57;;
21420;SDS011;10871;50.144;8.428;2023-06-14T02:05:41;5.38;;;4.43;;
21420;SDS011;10871;50.144;8.428;2023-06-14T02:08:08;6.10;;;4.72;;
21420;SDS011;10871;50.144;8.428;2023-06-14T02:10:36;10.38;;;4.40;;
21420;SDS011;10871;50.144;8.428;2023-06-14T02:13:03;7.93;;;4.53;;
21420;SDS011;10871;50.144;8.428;2023-06-14T02:15:29;5.30;;;4.00;;
21420;SDS011;10871;50.144;8.428;2023-06-14T02:18:00;5.35;;;4.40;;
21420;SDS011;10871;50.144;8.428;2023-06-14T02:20:27;14.77;;;4.45;;
21420;SDS011;10871;50.144;8.428;2023-06-14T02:22:55;7.93;;;4.45;;
21420;SDS011;10871;50.144;8.428;2023-06-14T02:25:22;5.38;;;4.10;;
21420;SDS011;10871;50.144;8.428;2023-06-14T02:27:48;7.05;;;4.18;;
21420;SDS011;10871;50.144;8.428;2023-06-14T02:30:14;9.70;;;4.63;;
21420;SDS011;10871;50.144;8.428;2023-06-14T02:32:42;8.00;;;4.45;;
21420;SDS011;10871;50.144;8.428;2023-06-14T02:35:11;6.65;;;4.40;;
21420;SDS011;10871;50.144;8.428;2023-06-14T02:37:38;8.30;;;4.25;;
21420;SDS011;10871;50.144;8.428;2023-06-14T02:40:05;7.55;;;4.72;;
21420;SDS011;10871;50.144;8.428;2023-06-14T02:42:32;9.10;;;4.47;;
21420;SDS011;10871;50.144;8.428;2023-06-14T02:44:58;9.02;;;4.88;;
21420;SDS011;10871;50.144;8.428;2023-06-14T02:47:27;7.53;;;4.75;;
21420;SDS011;10871;50.144;8.428;2023-06-14T02:49:53;6.47;;;4.70;;
21420;SDS011;10871;50.144;8.428;2023-06-14T02:52:20;5.93;;;4.70;;
21420;SDS011;10871;50.144;8.428;2023-06-14T02:54:46;5.20;;;4.57;;
21420;SDS011;10871;50.144;8.428;2023-06-14T02:57:14;6.82;;;4.80;;
21420;SDS011;10871;50.144;8.428;2023-06-14T02:59:41;6.32;;;4.30;;
21420;SDS011;10871;50.144;8.428;2023-06-14T03:02:07;7.57;;;4.60;;
21420;SDS011;10871;50.144;8.428;2023-06-14T03:04:34;11.77;;;4.68;;
21420;SDS011;10871;50.144;8.428;2023-06-14T03:07:07;10.10;;;5.38;;
21420;SDS011;10871;50.144;8.428;2023-06-14T03:09:39;6.47;;;4.70;;
21420;SDS011;10871;50.144;8.428;2023-06-14T03:12:08;5.57;;;4.53;;
21420;SDS011;10871;50.144;8.428;2023-06-14T03:14:35;7.13;;;4.85;;
21420;SDS011;10871;50.144;8.428;2023-06-14T03:17:02;8.38;;;4.43;;
21420;SDS011;10871;50.144;8.428;2023-06-14T03:19:33;8.93;;;5.03;;
21420;SDS011;10871;50.144;8.428;2023-06-14T03:21:59;8.23;;;4.50;;
21420;SDS011;10871;50.144;8.428;2023-06-14T03:24:28;8.00;;;4.50;;
21420;SDS011;10871;50.144;8.428;2023-06-14T03:26:57;5.15;;;4.65;;
21420;SDS011;10871;50.144;8.428;2023-06-14T03:29:25;7.82;;;4.30;;
21420;SDS011;10871;50.144;8.428;2023-06-14T03:31:59;5.90;;;4.60;;
21420;SDS011;10871;50.144;8.428;2023-06-14T03:34:32;8.38;;;5.03;;
21420;SDS011;10871;50.144;8.428;2023-06-14T03:36:59;7.88;;;4.32;;
21420;SDS011;10871;50.144;8.428;2023-06-14T03:39:27;7.47;;;5.10;;
21420;SDS011;10871;50.144;8.428;2023-06-14T03:41:54;7.30;;;5.20;;
21420;SDS011;10871;50.144;8.428;2023-06-14T03:44:21;6.85;;;4.68;;
21420;SDS011;10871;50.144;8.428;2023-06-14T03:46:47;5.15;;;4.65;;
21420;SDS011;10871;50.144;8.428;2023-06-14T03:49:14;7.93;;;4.70;;
21420;SDS011;10871;50.144;8.428;2023-06-14T03:51:44;5.25;;;4.75;;
21420;SDS011;10871;50.144;8.428;2023-06-14T03:54:12;8.15;;;5.05;;
21420;SDS011;10871;50.144;8.428;2023-06-14T03:56:58;8.30;;;4.22;;
21420;SDS011;10871;50.144;8.428;2023-06-14T03:59:26;7.28;;;4.70;;
21420;SDS011;10871;50.144;8.428;2023-06-14T04:01:53;7.30;;;4.90;;
21420;SDS011;10871;50.144;8.428;2023-06-14T04:04:20;7.78;;;4.55;;
21420;SDS011;10871;50.144;8.428;2023-06-14T04:06:47;8.15;;;4.68;;
21420;SDS011;10871;50.144;8.428;2023-06-14T04:09:14;5.78;;;4.65;;
21420;SDS011;10871;50.144;8.428;2023-06-14T04:11:41;6.55;;;4.80;;
21420;SDS011;10871;50.144;8.428;2023-06-14T04:14:07;8.60;;;5.20;;
21420;SDS011;10871;50.144;8.428;2023-06-14T04:16:34;7.65;;;4.45;;
21420;SDS011;10871;50.144;8.428;2023-06-14T04:19:00;7.38;;;5.00;;
21420;SDS011;10871;50.144;8.428;2023-06-14T04:21:27;8.02;;;5.15;;
21420;SDS011;10871;50.144;8.428;2023-06-14T04:23:57;8.85;;;4.50;;
21420;SDS011;10871;50.144;8.428;2023-06-14T04:26:27;6.18;;;4.40;;
21420;SDS011;10871;50.144;8.428;2023-06-14T04:28:56;9.48;;;4.95;;
21420;SDS011;10871;50.144;8.428;2023-06-14T04:31:23;7.90;;;5.32;;
21420;SDS011;10871;50.144;8.428;2023-06-14T04:33:52;7.68;;;4.88;;
21420;SDS011;10871;50.144;8.428;2023-06-14T04:36:21;9.18;;;4.85;;
21420;SDS011;10871;50.144;8.428;2023-06-14T04:38:49;6.07;;;5.15;;
21420;SDS011;10871;50.144;8.428;2023-06-14T04:41:16;8.52;;;5.30;;
21420;SDS011;10871;50.144;8.428;2023-06-14T04:43:42;7.90;;;5.18;;
21420;SDS011;10871;50.144;8.428;2023-06-14T04:46:09;6.05;;;5.00;;
21420;SDS011;10871;50.144;8.428;2023-06-14T04:48:41;8.38;;;4.53;;
21420;SDS011;10871;50.144;8.428;2023-06-14T04:51:09;8.60;;;4.53;;
21420;SDS011;10871;50.144;8.428;2023-06-14T04:53:36;10.18;;;4.55;;
21420;SDS011;10871;50.144;8.428;2023-06-14T04:56:04;6.95;;;4.40;;
21420;SDS011;10871;50.144;8.428;2023-06-14T04:58:32;7.20;;;4.28;;
21420;SDS011;10871;50.144;8.428;2023-06-14T05:00:59;5.90;;;4.05;;
21420;SDS011;10871;50.144;8.428;2023-06-14T05:03:25;4.47;;;4.07;;
21420;SDS011;10871;50.144;8.428;2023-06-14T05:05:53;5.95;;;3.88;;
21420;SDS011;10871;50.144;8.428;2023-06-14T05:08:20;8.02;;;4.20;;
21420;SDS011;10871;50.144;8.428;2023-06-14T05:10:49;5.43;;;3.78;;
21420;SDS011;10871;50.144;8.428;2023-06-14T05:13:16;12.52;;;3.85;;
21420;SDS011;10871;50.144;8.428;2023-06-14T05:15:44;4.80;;;3.95;;
21420;SDS011;10871;50.144;8.428;2023-06-14T05:18:11;4.80;;;3.63;;
21420;SDS011;10871;50.144;8.428;2023-06-14T05:20:40;7.72;;;3.70;;
21420;SDS011;10871;50.144;8.428;2023-06-14T05:23:08;6.93;;;3.78;;
21420;SDS011;10871;50.144;8.428;2023-06-14T05:25:35;4.72;;;3.58;;
21420;SDS011;10871;50.144;8.428;2023-06-14T05:28:01;6.53;;;3.67;;
21420;SDS011;10871;50.144;8.428;2023-06-14T05:30:29;6.97;;;3.55;;
21420;SDS011;10871;50.144;8.428;2023-06-14T05:32:56;5.55;;;3.80;;
21420;SDS011;10871;50.144;8.428;2023-06-14T05:35:23;5.30;;;3.70;;
21420;SDS011;10871;50.144;8.428;2023-06-14T05:37:52;5.68;;;3.60;;
21420;SDS011;10871;50.144;8.428;2023-06-14T05:40:20;8.25;;;3.70;;
21420;SDS011;10871;50.144;8.428;2023-06-14T05:42:46;5.85;;;4.07;;
21420;SDS011;10871;50.144;8.428;2023-06-14T05:45:12;8.68;;;3.97;;
21420;SDS011;10871;50.144;8.428;2023-06-14T05:47:40;10.15;;;3.70;;
21420;SDS011;10871;50.144;8.428;2023-06-14T05:50:07;7.43;;;4.03;;
21420;SDS011;10871;50.144;8.428;2023-06-14T05:52:34;7.28;;;3.70;;
21420;SDS011;10871;50.144;8.428;2023-06-14T05:55:01;5.93;;;3.90;;
21420;SDS011;10871;50.144;8.428;2023-06-14T05:57:27;11.15;;;4.25;;
21420;SDS011;10871;50.144;8.428;2023-06-14T05:59:54;5.88;;;4.00;;
21420;SDS011;10871;50.144;8.428;2023-06-14T06:02:20;4.25;;;3.75;;
21420;SDS011;10871;50.144;8.428;2023-06-14T06:04:46;8.55;;;4.03;;
21420;SDS011;10871;50.144;8.428;2023-06-14T06:07:13;5.13;;;3.70;;
21420;SDS011;10871;50.144;8.428;2023-06-14T06:09:39;5.35;;;3.67;;
21420;SDS011;10871;50.144;8.428;2023-06-14T06:12:06;4.95;;;3.63;;
21420;SDS011;10871;50.144;8.428;2023-06-14T06:14:32;14.18;;;3.95;;
21420;SDS011;10871;50.144;8.428;2023-06-14T06:16:59;6.72;;;3.78;;
21420;SDS011;10871;50.144;8.428;2023-06-14T06:19:25;5.80;;;3.40;;
21420;SDS011;10871;50.144;8.428;2023-06-14T06:21:52;6.63;;;3.67;;
21420;SDS011;10871;50.144;8.428;2023-06-14T06:24:18;6.15;;;3.45;;
21420;SDS011;10871;50.144;8.428;2023-06-14T06:26:44;7.13;;;3.60;;
21420;SDS011;10871;50.144;8.428;2023-06-14T06:29:11;4.07;;;3.63;;
21420;SDS011;10871;50.144;8.428;2023-06-14T06:31:37;5.72;;;3.60;;
21420;SDS011;10871;50.144;8.428;2023-06-14T06:34:04;9.15;;;3.70;;
21420;SDS011;10871;50.144;8.428;2023-06-14T06:36:30;8.18;;;3.20;;
21420;SDS011;10871;50.144;8.428;2023-06-14T06:38:57;4.97;;;3.50;;
21420;SDS011;10871;50.144;8.428;2023-06-14T06:41:23;4.57;;;3.40;;
21420;SDS011;10871;50.144;8.428;2023-06-14T06:43:49;4.75;;;3.50;;
21420;SDS011;10871;50.144;8.428;2023-06-14T06:46:16;6.95;;;3.65;;
21420;SDS011;10871;50.144;8.428;2023-06-14T06:48:44;5.72;;;3.20;;
21420;SDS011;10871;50.144;8.428;2023-06-14T06:51:11;6.88;;;3.60;;
21420;SDS011;10871;50.144;8.428;2023-06-14T06:53:39;6.55;;;3.30;;
21420;SDS011;10871;50.144;8.428;2023-06-14T06:56:13;4.38;;;3.42;;
21420;SDS011;10871;50.144;8.428;2023-06-14T06:58:39;3.50;;;3.20;;
21420;SDS011;10871;50.144;8.428;2023-06-14T07:01:05;5.95;;;3.53;;
21420;SDS011;10871;50.144;8.428;2023-06-14T07:03:32;3.97;;;3.40;;
21420;SDS011;10871;50.144;8.428;2023-06-14T07:05:58;4.45;;;3.00;;
21420;SDS011;10871;50.144;8.428;2023-06-14T07:08:25;5.72;;;3.28;;
21420;SDS011;10871;50.144;8.428;2023-06-14T07:10:53;4.32;;;3.05;;
21420;SDS011;10871;50.144;8.428;2023-06-14T07:13:19;5.30;;;3.33;;
21420;SDS011;10871;50.144;8.428;2023-06-14T07:15:45;3.88;;;2.88;;
21420;SDS011;10871;50.144;8.428;2023-06-14T07:18:12;6.75;;;2.75;;
21420;SDS011;10871;50.144;8.428;2023-06-14T07:20:41;6.90;;;3.00;;
21420;SDS011;10871;50.144;8.428;2023-06-14T07:23:09;5.85;;;3.00;;
21420;SDS011;10871;50.144;8.428;2023-06-14T07:25:35;5.55;;;2.88;;
21420;SDS011;10871;50.144;8.428;2023-06-14T07:28:02;7.78;;;3.13;;
21420;SDS011;10871;50.144;8.428;2023-06-14T07:30:28;5.47;;;3.40;;
21420;SDS011;10871;50.144;8.428;2023-06-14T07:32:56;6.90;;;3.20;;
21420;SDS011;10871;50.144;8.428;2023-06-14T07:35:23;4.43;;;2.78;;
21420;SDS011;10871;50.144;8.428;2023-06-14T07:37:49;5.25;;;2.97;;
21420;SDS011;10871;50.144;8.428;2023-06-14T07:40:15;5.72;;;3.05;;
21420;SDS011;10871;50.144;8.428;2023-06-14T07:42:42;6.10;;;3.00;;
21420;SDS011;10871;50.144;8.428;2023-06-14T07:45:08;4.47;;;2.72;;
21420;SDS011;10871;50.144;8.428;2023-06-14T07:47:35;4.30;;;3.13;;
21420;SDS011;10871;50.144;8.428;2023-06-14T07:50:01;6.10;;;3.00;;
21420;SDS011;10871;50.144;8.428;2023-06-14T07:52:29;3.90;;;2.67;;
21420;SDS011;10871;50.144;8.428;2023-06-14T07:54:55;2.75;;;2.47;;
21420;SDS011;10871;50.144;8.428;2023-06-14T07:57:22;4.13;;;2.92;;
21420;SDS011;10871;50.144;8.428;2023-06-14T07:59:49;4.10;;;2.80;;
21420;SDS011;10871;50.144;8.428;2023-06-14T08:02:16;5.90;;;2.80;;
21420;SDS011;10871;50.144;8.428;2023-06-14T08:04:42;4.68;;;2.97;;
21420;SDS011;10871;50.144;8.428;2023-06-14T08:07:09;8.35;;;2.75;;
21420;SDS011;10871;50.144;8.428;2023-06-14T08:09:35;5.63;;;2.97;;
21420;SDS011;10871;50.144;8.428;2023-06-14T08:12:04;3.08;;;2.80;;
21420;SDS011;10871;50.144;8.428;2023-06-14T08:14:33;4.85;;;2.88;;
21420;SDS011;10871;50.144;8.428;2023-06-14T08:17:00;6.30;;;2.83;;
21420;SDS011;10871;50.144;8.428;2023-06-14T08:19:26;2.92;;;2.60;;
21420;SDS011;10871;50.144;8.428;2023-06-14T08:21:52;4.88;;;2.63;;
21420;SDS011;10871;50.144;8.428;2023-06-14T08:24:21;2.50;;;2.30;;
21420;SDS011;10871;50.144;8.428;2023-06-14T08:26:50;2.58;;;2.20;;
21420;SDS011;10871;50.144;8.428;2023-06-14T08:29:17;5.78;;;2.83;;
21420;SDS011;10871;50.144;8.428;2023-06-14T08:31:44;2.42;;;2.22;;
21420;SDS011;10871;50.144;8.428;2023-06-14T08:34:10;3.83;;;2.10;;
21420;SDS011;10871;50.144;8.428;2023-06-14T08:36:37;4.80;;;2.40;;
21420;SDS011;10871;50.144;8.428;2023-06-14T08:39:03;5.70;;;2.60;;
21420;SDS011;10871;50.144;8.428;2023-06-14T08:41:30;3.35;;;2.40;;
21420;SDS011;10871;50.144;8.428;2023-06-14T08:43:56;6.07;;;2.75;;
21420;SDS011;10871;50.144;8.428;2023-06-14T08:46:23;7.30;;;2.92;;
21420;SDS011;10871;50.144;8.428;2023-06-14T08:48:51;9.50;;;2.80;;
21420;SDS011;10871;50.144;8.428;2023-06-14T08:51:18;5.63;;;2.33;;
21420;SDS011;10871;50.144;8.428;2023-06-14T08:53:45;3.90;;;2.28;;
21420;SDS011;10871;50.144;8.428;2023-06-14T08:56:12;6.18;;;2.58;;
21420;SDS011;10871;50.144;8.428;2023-06-14T08:58:42;2.33;;;1.90;;
21420;SDS011;10871;50.144;8.428;2023-06-14T09:01:11;4.32;;;2.10;;
21420;SDS011;10871;50.144;8.428;2023-06-14T09:03:40;2.03;;;1.90;;
21420;SDS011;10871;50.144;8.428;2023-06-14T09:06:08;2.35;;;2.15;;
21420;SDS011;10871;50.144;8.428;2023-06-14T09:08:40;3.47;;;2.38;;
21420;SDS011;10871;50.144;8.428;2023-06-14T09:11:08;5.18;;;2.20;;
21420;SDS011;10871;50.144;8.428;2023-06-14T09:13:34;7.95;;;2.38;;
21420;SDS011;10871;50.144;8.428;2023-06-14T09:16:01;2.85;;;2.65;;
21420;SDS011;10871;50.144;8.428;2023-06-14T09:18:37;9.70;;;2.38;;
21420;SDS011;10871;50.144;8.428;2023-06-14T09:21:07;2.28;;;1.95;;
21420;SDS011;10871;50.144;8.428;2023-06-14T09:23:40;4.10;;;2.70;;
21420;SDS011;10871;50.144;8.428;2023-06-14T09:26:08;8.23;;;2.50;;
21420;SDS011;10871;50.144;8.428;2023-06-14T09:28:35;2.33;;;2.13;;
21420;SDS011;10871;50.144;8.428;2023-06-14T09:31:01;3.00;;;2.03;;
21420;SDS011;10871;50.144;8.428;2023-06-14T09:33:28;3.45;;;2.42;;
21420;SDS011;10871;50.144;8.428;2023-06-14T09:35:54;3.08;;;2.20;;
21420;SDS011;10871;50.144;8.428;2023-06-14T09:38:21;2.30;;;2.10;;
21420;SDS011;10871;50.144;8.428;2023-06-14T09:40:47;5.35;;;2.20;;
21420;SDS011;10871;50.144;8.428;2023-06-14T09:43:15;3.03;;;2.33;;
21420;SDS011;10871;50.144;8.428;2023-06-14T09:45:42;2.60;;;2.10;;
21420;SDS011;10871;50.144;8.428;2023-06-14T09:48:11;3.45;;;2.20;;
21420;SDS011;10871;50.144;8.428;2023-06-14T09:50:46;2.75;;;1.95;;
21420;SDS011;10871;50.144;8.428;2023-06-14T09:53:14;2.00;;;1.80;;
21420;SDS011;10871;50.144;8.428;2023-06-14T09:55:41;2.10;;;1.90;;
21420;SDS011;10871;50.144;8.428;2023-06-14T09:58:08;2.20;;;1.67;;
21420;SDS011;10871;50.144;8.428;2023-06-14T10:00:35;2.13;;;1.90;;
21420;SDS011;10871;50.144;8.428;2023-06-14T10:03:12;2.63;;;2.00;;
21420;SDS011;10871;50.144;8.428;2023-06-14T10:05:41;3.60;;;1.95;;
21420;SDS011;10871;50.144;8.428;2023-06-14T10:08:08;2.75;;;1.50;;
21420;SDS011;10871;50.144;8.428;2023-06-14T10:10:35;3.50;;;1.65;;
21420;SDS011;10871;50.144;8.428;2023-06-14T10:13:02;4.72;;;2.30;;
21420;SDS011;10871;50.144;8.428;2023-06-14T10:15:30;1.95;;;1.85;;
21420;SDS011;10871;50.144;8.428;2023-06-14T10:18:00;2.95;;;1.92;;
21420;SDS011;10871;50.144;8.428;2023-06-14T10:20:28;3.03;;;2.13;;
21420;SDS011;10871;50.144;8.428;2023-06-14T10:23:19;2.90;;;1.80;;
21420;SDS011;10871;50.144;8.428;2023-06-14T10:25:43;3.60;;;2.15;;
21420;SDS011;10871;50.144;8.428;2023-06-14T10:30:39;2.63;;;1.80;;
21420;SDS011;10871;50.144;8.428;2023-06-14T10:33:06;2.78;;;2.20;;
21420;SDS011;10871;50.144;8.428;2023-06-14T10:35:33;2.40;;;2.15;;
21420;SDS011;10871;50.144;8.428;2023-06-14T10:38:07;3.65;;;2.13;;
21420;SDS011;10871;50.144;8.428;2023-06-14T10:40:33;2.33;;;1.98;;
21420;SDS011;10871;50.144;8.428;2023-06-14T10:43:00;4.05;;;2.03;;
21420;SDS011;10871;50.144;8.428;2023-06-14T10:45:26;3.90;;;2.00;;
21420;SDS011;10871;50.144;8.428;2023-06-14T10:47:53;3.20;;;2.00;;
21420;SDS011;10871;50.144;8.428;2023-06-14T10:50:29;2.53;;;1.85;;
21420;SDS011;10871;50.144;8.428;2023-06-14T10:52:55;2.65;;;2.00;;
21420;SDS011;10871;50.144;8.428;2023-06-14T10:55:22;3.83;;;1.95;;
21420;SDS011;10871;50.144;8.428;2023-06-14T11:00:22;2.33;;;2.00;;
21420;SDS011;10871;50.144;8.428;2023-06-14T11:03:09;2.80;;;2.20;;
21420;SDS011;10871;50.144;8.428;2023-06-14T11:11:00;3.78;;;2.00;;
21420;SDS011;10871;50.144;8.428;2023-06-14T11:13:31;2.42;;;2.22;;
21420;SDS011;10871;50.144;8.428;2023-06-14T11:15:58;2.80;;;2.40;;
21420;SDS011;10871;50.144;8.428;2023-06-14T11:18:24;6.63;;;2.30;;
21420;SDS011;10871;50.144;8.428;2023-06-14T11:20:52;2.55;;;2.17;;
21420;SDS011;10871;50.144;8.428;2023-06-14T11:23:18;3.10;;;2.38;;
21420;SDS011;10871;50.144;8.428;2023-06-14T11:25:51;4.15;;;2.35;;
21420;SDS011;10871;50.144;8.428;2023-06-14T11:28:18;4.03;;;2.42;;
21420;SDS011;10871;50.144;8.428;2023-06-14T11:30:48;3.95;;;2.50;;
21420;SDS011;10871;50.144;8.428;2023-06-14T11:33:17;3.28;;;2.42;;
21420;SDS011;10871;50.144;8.428;2023-06-14T11:35:47;2.40;;;2.20;;
21420;SDS011;10871;50.144;8.428;2023-06-14T11:38:13;2.85;;;2.65;;
21420;SDS011;10871;50.144;8.428;2023-06-14T11:40:40;3.05;;;2.35;;
21420;SDS011;10871;50.144;8.428;2023-06-14T11:43:06;3.25;;;2.28;;
21420;SDS011;10871;50.144;8.428;2023-06-14T11:45:32;2.60;;;2.30;;
21420;SDS011;10871;50.144;8.428;2023-06-14T11:47:59;4.30;;;2.60;;
21420;SDS011;10871;50.144;8.428;2023-06-14T11:50:26;2.58;;;2.38;;
21420;SDS011;10871;50.144;8.428;2023-06-14T11:52:56;4.68;;;2.50;;
21420;SDS011;10871;50.144;8.428;2023-06-14T11:55:23;3.05;;;2.50;;
21420;SDS011;10871;50.144;8.428;2023-06-14T11:57:50;3.03;;;2.40;;
21420;SDS011;10871;50.144;8.428;2023-06-14T12:00:17;2.75;;;2.53;;
21420;SDS011;10871;50.144;8.428;2023-06-14T12:02:51;3.45;;;2.60;;
21420;SDS011;10871;50.144;8.428;2023-06-14T12:05:20;2.60;;;2.40;;
21420;SDS011;10871;50.144;8.428;2023-06-14T12:07:47;2.72;;;2.47;;
21420;SDS011;10871;50.144;8.428;2023-06-14T12:10:14;2.97;;;2.40;;
21420;SDS011;10871;50.144;8.428;2023-06-14T12:12:41;5.10;;;2.38;;
21420;SDS011;10871;50.144;8.428;2023-06-14T12:15:08;4.65;;;2.53;;
21420;SDS011;10871;50.144;8.428;2023-06-14T12:17:35;5.47;;;2.63;;
21420;SDS011;10871;50.144;8.428;2023-06-14T12:20:06;4.32;;;2.45;;
21420;SDS011;10871;50.144;8.428;2023-06-14T12:22:52;2.58;;;2.30;;
21420;SDS011;10871;50.144;8.428;2023-06-14T12:25:32;2.53;;;1.98;;
21420;SDS011;10871;50.144;8.428;2023-06-14T12:27:59;2.85;;;2.28;;
21420;SDS011;10871;50.144;8.428;2023-06-14T12:30:26;4.65;;;2.40;;
21420;SDS011;10871;50.144;8.428;2023-06-14T12:32:52;2.15;;;1.95;;
21420;SDS011;10871;50.144;8.428;2023-06-14T12:35:19;4.43;;;1.98;;
21420;SDS011;10871;50.144;8.428;2023-06-14T12:37:45;2.40;;;2.10;;
21420;SDS011;10871;50.144;8.428;2023-06-14T12:40:12;4.80;;;2.38;;
21420;SDS011;10871;50.144;8.428;2023-06-14T12:42:40;2.78;;;2.25;;
21420;SDS011;10871;50.144;8.428;2023-06-14T12:45:06;3.55;;;2.08;;
21420;SDS011;10871;50.144;8.428;2023-06-14T12:47:33;2.92;;;2.38;;
21420;SDS011;10871;50.144;8.428;2023-06-14T12:49:59;3.00;;;2.17;;
21420;SDS011;10871;50.144;8.428;2023-06-14T12:52:26;3.53;;;2.17;;
21420;SDS011;10871;50.144;8.428;2023-06-14T12:54:52;3.75;;;2.10;;
21420;SDS011;10871;50.144;8.428;2023-06-14T12:57:19;4.70;;;2.47;;
21420;SDS011;10871;50.144;8.428;2023-06-14T12:59:45;3.22;;;2.42;;
21420;SDS011;10871;50.144;8.428;2023-06-14T13:02:16;6.00;;;2.63;;
21420;SDS011;10871;50.144;8.428;2023-06-14T13:04:43;4.05;;;2.42;;
21420;SDS011;10871;50.144;8.428;2023-06-14T13:07:09;3.75;;;2.55;;
21420;SDS011;10871;50.144;8.428;2023-06-14T13:09:41;4.72;;;2.35;;
21420;SDS011;10871;50.144;8.428;2023-06-14T13:12:08;3.33;;;2.42;;
21420;SDS011;10871;50.144;8.428;2023-06-14T13:14:35;5.10;;;2.58;;
21420;SDS011;10871;50.144;8.428;2023-06-14T13:17:01;2.47;;;2.28;;
21420;SDS011;10871;50.144;8.428;2023-06-14T13:19:28;4.28;;;2.45;;
21420;SDS011;10871;50.144;8.428;2023-06-14T13:21:54;4.15;;;2.33;;
21420;SDS011;10871;50.144;8.428;2023-06-14T13:24:20;3.42;;;2.40;;
21420;SDS011;10871;50.144;8.428;2023-06-14T13:26:47;2.42;;;2.22;;
21420;SDS011;10871;50.144;8.428;2023-06-14T13:29:13;4.40;;;2.33;;
21420;SDS011;10871;50.144;8.428;2023-06-14T13:31:39;3.17;;;2.75;;
21420;SDS011;10871;50.144;8.428;2023-06-14T13:34:06;8.20;;;3.17;;
21420;SDS011;10871;50.144;8.428;2023-06-14T13:36:32;7.70;;;2.65;;
21420;SDS011;10871;50.144;8.428;2023-06-14T13:38:59;4.07;;;2.40;;
21420;SDS011;10871;50.144;8.428;2023-06-14T13:41:26;2.78;;;2.45;;
21420;SDS011;10871;50.144;8.428;2023-06-14T13:43:58;3.08;;;2.30;;
21420;SDS011;10871;50.144;8.428;2023-06-14T13:46:42;4.68;;;2.47;;
21420;SDS011;10871;50.144;8.428;2023-06-14T13:52:09;3.67;;;2.20;;
21420;SDS011;10871;50.144;8.428;2023-06-14T13:54:37;3.45;;;2.60;;
21420;SDS011;10871;50.144;8.428;2023-06-14T13:57:21;4.35;;;2.70;;
21420;SDS011;10871;50.144;8.428;2023-06-14T14:02:49;4.93;;;2.47;;
21420;SDS011;10871;50.144;8.428;2023-06-14T14:05:34;4.15;;;2.72;;
21420;SDS011;10871;50.144;8.428;2023-06-14T14:08:00;2.63;;;2.20;;
21420;SDS011;10871;50.144;8.428;2023-06-14T14:10:26;2.72;;;2.20;;
21420;SDS011;10871;50.144;8.428;2023-06-14T14:12:53;3.88;;;2.55;;
21420;SDS011;10871;50.144;8.428;2023-06-14T14:15:20;2.30;;;2.10;;
21420;SDS011;10871;50.144;8.428;2023-06-14T14:17:47;2.80;;;2.60;;
21420;SDS011;10871;50.144;8.428;2023-06-14T14:20:14;4.80;;;2.60;;
21420;SDS011;10871;50.144;8.428;2023-06-14T14:22:59;3.13;;;2.60;;
21420;SDS011;10871;50.144;8.428;2023-06-14T14:28:09;3.25;;;2.45;;
21420;SDS011;10871;50.144;8.428;2023-06-14T14:30:37;3.63;;;2.35;;
21420;SDS011;10871;50.144;8.428;2023-06-14T14:33:05;3.22;;;2.30;;
21420;SDS011;10871;50.144;8.428;2023-06-14T14:35:33;2.65;;;2.40;;
21420;SDS011;10871;50.144;8.428;2023-06-14T14:37:59;3.72;;;2.35;;
21420;SDS011;10871;50.144;8.428;2023-06-14T14:40:26;3.67;;;2.67;;
21420;SDS011;10871;50.144;8.428;2023-06-14T14:42:52;4.05;;;2.50;;
21420;SDS011;10871;50.144;8.428;2023-06-14T14:45:19;4.47;;;2.50;;
21420;SDS011;10871;50.144;8.428;2023-06-14T14:47:46;3.65;;;2.70;;
21420;SDS011;10871;50.144;8.428;2023-06-14T14:50:13;3.78;;;2.47;;
21420;SDS011;10871;50.144;8.428;2023-06-14T14:52:40;4.78;;;2.70;;
21420;SDS011;10871;50.144;8.428;2023-06-14T14:55:06;3.60;;;2.22;;
21420;SDS011;10871;50.144;8.428;2023-06-14T14:57:33;5.50;;;2.80;;
21420;SDS011;10871;50.144;8.428;2023-06-14T14:59:59;4.65;;;2.53;;
21420;SDS011;10871;50.144;8.428;2023-06-14T15:02:26;2.53;;;2.33;;
21420;SDS011;10871;50.144;8.428;2023-06-14T15:04:53;3.60;;;2.70;;
21420;SDS011;10871;50.144;8.428;2023-06-14T15:07:20;3.42;;;2.35;;
21420;SDS011;10871;50.144;8.428;2023-06-14T15:09:46;4.78;;;2.40;;
21420;SDS011;10871;50.144;8.428;2023-06-14T15:12:16;3.33;;;2.40;;